createdAt,value
2022-08-01T00:00:14.121Z,21.35
2022-08-01T00:02:43.509Z,21.32
2022-08-01T00:05:13.166Z,21.29
2022-08-01T00:07:57.153Z,21.28
2022-08-01T00:10:26.012Z,20.96
2022-08-01T00:12:54.859Z,21.21
2022-08-01T00:15:23.842Z,21.19
2022-08-01T00:17:52.668Z,21.21
2022-08-01T00:20:21.575Z,21.21
2022-08-01T00:22:50.168Z,21.20
2022-08-01T00:25:20.751Z,20.87
2022-08-01T00:28:04.339Z,21.09
2022-08-01T00:30:33.470Z,20.98
2022-08-01T00:33:02.559Z,20.95
2022-08-01T00:35:31.581Z,20.84
2022-08-01T00:38:00.369Z,20.76
2022-08-01T00:40:30.491Z,20.61
2022-08-01T00:42:59.589Z,20.69
2022-08-01T00:45:34.565Z,20.33
2022-08-01T00:48:03.236Z,20.49
2022-08-01T00:50:45.122Z,20.28
2022-08-01T00:53:18.591Z,20.40
2022-08-01T00:56:04.543Z,20.39
2022-08-01T00:58:38.038Z,20.33
2022-08-01T01:01:14.290Z,20.22
2022-08-01T01:03:58.701Z,19.80
2022-08-01T01:06:46.634Z,20.09
2022-08-01T01:09:33.698Z,20.06
2022-08-01T01:12:24.481Z,20.05
2022-08-01T01:15:03.742Z,19.56
2022-08-01T01:17:51.445Z,20.01
2022-08-01T01:20:25.751Z,19.80
2022-08-01T01:23:17.973Z,19.75
2022-08-01T01:26:19.822Z,20.01
2022-08-01T01:29:13.465Z,20.11
2022-08-01T01:31:50.014Z,20.16
2022-08-01T01:34:26.828Z,20.16
2022-08-01T01:37:02.516Z,20.04
2022-08-01T01:39:33.959Z,19.88
2022-08-01T01:42:07.294Z,20.13
2022-08-01T01:44:45.688Z,20.17
2022-08-01T01:47:18.475Z,20.17
2022-08-01T01:50:06.591Z,20.17
2022-08-01T01:52:39.006Z,20.19
2022-08-01T01:55:13.962Z,20.17
2022-08-01T01:57:48.551Z,20.13
2022-08-01T02:00:21.448Z,20.11
2022-08-01T02:02:54.245Z,19.97
2022-08-01T02:05:24.216Z,20.06
2022-08-01T02:07:59.686Z,20.20
2022-08-01T02:10:30.654Z,20.23
2022-08-01T02:13:04.239Z,20.29
2022-08-01T02:15:39.296Z,20.28
2022-08-01T02:18:28.176Z,20.26
2022-08-01T02:21:00.043Z,20.25
2022-08-01T02:23:34.766Z,20.23
2022-08-01T02:26:11.683Z,20.19
2022-08-01T02:28:49.699Z,20.14
2022-08-01T02:31:23.673Z,20.13
2022-08-01T02:34:01.176Z,19.95
2022-08-01T02:36:35.200Z,20.06
2022-08-01T02:39:10.715Z,19.97
2022-08-01T02:41:45.564Z,19.99
2022-08-01T02:44:25.843Z,19.94
2022-08-01T02:47:03.551Z,19.99
2022-08-01T02:49:37.538Z,20.02
2022-08-01T02:52:10.727Z,20.04
2022-08-01T02:54:41.727Z,19.76
2022-08-01T02:57:13.846Z,19.92
2022-08-01T02:59:45.077Z,19.75
2022-08-01T03:02:18.818Z,19.92
2022-08-01T03:04:52.704Z,20.06
2022-08-01T03:07:34.424Z,20.06
2022-08-01T03:10:05.607Z,20.07
2022-08-01T03:12:40.226Z,20.09
2022-08-01T03:15:12.712Z,20.09
2022-08-01T03:17:47.024Z,19.80
2022-08-01T03:20:18.773Z,19.79
2022-08-01T03:22:50.589Z,20.04
2022-08-01T03:25:21.027Z,19.64
2022-08-01T03:27:57.413Z,20.04
2022-08-01T03:30:28.704Z,20.02
2022-08-01T03:32:59.438Z,20.00
2022-08-01T03:35:35.759Z,19.88
2022-08-01T03:38:16.630Z,19.93
2022-08-01T03:40:51.792Z,19.70
2022-08-01T03:43:29.134Z,19.94
2022-08-01T03:46:04.368Z,19.94
2022-08-01T03:48:39.118Z,19.91
2022-08-01T03:51:11.156Z,19.87
2022-08-01T03:53:43.397Z,19.79
2022-08-01T03:56:15.037Z,19.70
2022-08-01T03:58:50.134Z,19.50
2022-08-01T04:01:20.660Z,19.50
2022-08-01T04:03:51.446Z,19.43
2022-08-01T04:06:20.512Z,19.38
2022-08-01T04:08:56.677Z,19.34
2022-08-01T04:11:28.328Z,19.17
2022-08-01T04:13:58.618Z,19.24
2022-08-01T04:16:27.685Z,18.76
2022-08-01T04:18:58.078Z,19.26
2022-08-01T04:21:31.777Z,19.35
2022-08-01T04:24:06.120Z,19.49
2022-08-01T04:26:38.419Z,19.65
2022-08-01T04:29:10.369Z,19.52
2022-08-01T04:31:44.242Z,19.95
2022-08-01T04:34:19.990Z,20.02
2022-08-01T04:36:50.734Z,20.03
2022-08-01T04:39:22.355Z,20.07
2022-08-01T04:41:53.532Z,20.28
2022-08-01T04:44:22.843Z,20.48
2022-08-01T04:46:55.585Z,20.73
2022-08-01T04:49:26.137Z,20.58
2022-08-01T04:51:58.741Z,20.66
2022-08-01T04:54:28.188Z,20.88
2022-08-01T04:57:01.111Z,20.67
2022-08-01T04:59:42.451Z,21.23
2022-08-01T05:02:14.252Z,21.41
2022-08-01T05:04:45.576Z,21.44
2022-08-01T05:07:16.915Z,20.99
2022-08-01T05:09:47.114Z,21.38
2022-08-01T05:12:16.929Z,21.40
2022-08-01T05:14:46.985Z,21.59
2022-08-01T05:17:15.838Z,21.67
2022-08-01T05:19:46.319Z,22.30
2022-08-01T05:22:15.565Z,21.72
2022-08-01T05:24:44.713Z,23.07
2022-08-01T05:27:15.606Z,23.13
2022-08-01T05:29:45.324Z,23.04
2022-08-01T05:32:14.341Z,23.24
2022-08-01T05:34:43.282Z,23.25
2022-08-01T05:37:13.471Z,23.33
2022-08-01T05:39:42.330Z,23.44
2022-08-01T05:42:11.199Z,23.48
2022-08-01T05:44:39.769Z,23.52
2022-08-01T05:47:08.728Z,23.48
2022-08-01T05:49:37.540Z,23.39
2022-08-01T05:52:06.899Z,23.28
2022-08-01T05:54:37.172Z,23.28
2022-08-01T05:57:06.956Z,23.27
2022-08-01T05:59:35.911Z,23.60
2022-08-01T06:02:05.114Z,23.69
2022-08-01T06:04:33.977Z,23.68
2022-08-01T06:07:02.736Z,23.57
2022-08-01T06:09:32.001Z,23.38
2022-08-01T06:12:02.091Z,23.33
2022-08-01T06:14:31.101Z,23.22
2022-08-01T06:17:00.111Z,23.26
2022-08-01T06:19:29.109Z,23.42
2022-08-01T06:21:58.071Z,23.65
2022-08-01T06:24:27.782Z,23.88
2022-08-01T06:26:57.624Z,23.85
2022-08-01T06:29:39.582Z,23.36
2022-08-01T06:32:26.676Z,23.53
2022-08-01T06:34:57.173Z,23.38
2022-08-01T06:37:26.379Z,23.80
2022-08-01T06:39:55.452Z,24.00
2022-08-01T06:42:24.807Z,24.18
2022-08-01T06:44:54.866Z,24.22
2022-08-01T06:47:26.983Z,24.19
2022-08-01T06:49:56.257Z,24.35
2022-08-01T06:52:25.028Z,24.41
2022-08-01T06:54:55.029Z,24.56
2022-08-01T06:57:24.030Z,24.56
2022-08-01T06:59:54.857Z,24.54
2022-08-01T07:02:24.405Z,24.62
2022-08-01T07:04:53.309Z,24.68
2022-08-01T07:07:22.359Z,24.85
2022-08-01T07:09:50.988Z,25.04
2022-08-01T07:12:21.278Z,25.25
2022-08-01T07:14:50.143Z,25.41
2022-08-01T07:17:21.581Z,25.01
2022-08-01T07:19:50.593Z,24.95
2022-08-01T07:22:23.066Z,25.31
2022-08-01T07:24:54.423Z,25.24
2022-08-01T07:27:25.551Z,25.55
2022-08-01T07:29:55.084Z,25.85
2022-08-01T07:32:26.570Z,26.13
2022-08-01T07:34:55.517Z,26.06
2022-08-01T07:37:48.409Z,25.99
2022-08-01T07:40:14.391Z,25.36
2022-08-01T07:42:46.136Z,26.14
2022-08-01T07:45:15.604Z,26.45
2022-08-01T07:47:46.538Z,26.25
2022-08-01T07:50:15.915Z,25.64
2022-08-01T07:52:45.085Z,25.22
2022-08-01T07:55:16.605Z,24.62
2022-08-01T07:57:45.680Z,24.46
2022-08-01T08:00:16.215Z,24.31
2022-08-01T08:02:46.773Z,24.18
2022-08-01T08:05:15.646Z,24.76
2022-08-01T08:08:04.707Z,25.38
2022-08-01T08:10:33.360Z,25.82
2022-08-01T08:13:02.695Z,25.83
2022-08-01T08:15:31.888Z,26.04
2022-08-01T08:18:05.177Z,26.10
2022-08-01T08:20:33.912Z,26.06
2022-08-01T08:23:41.547Z,26.36
2022-08-01T08:26:11.988Z,26.86
2022-08-01T08:28:40.951Z,27.11
2022-08-01T08:31:24.916Z,27.13
2022-08-01T08:33:59.872Z,27.18
2022-08-01T08:36:31.199Z,27.17
2022-08-01T08:39:01.802Z,26.54
2022-08-01T08:41:37.586Z,25.98
2022-08-01T08:44:10.429Z,25.81
2022-08-01T08:46:45.357Z,25.56
2022-08-01T08:49:20.903Z,25.13
2022-08-01T08:51:52.778Z,24.83
2022-08-01T08:54:28.933Z,24.51
2022-08-01T08:57:02.360Z,24.47
2022-08-01T08:59:31.669Z,24.33
2022-08-01T09:02:01.116Z,24.44
2022-08-01T09:04:32.152Z,24.48
2022-08-01T09:07:01.246Z,24.78
2022-08-01T09:09:30.077Z,25.12
2022-08-01T09:11:59.512Z,25.38
2022-08-01T09:14:31.497Z,25.94
2022-08-01T09:17:07.778Z,26.23
2022-08-01T09:19:43.588Z,26.34
2022-08-01T09:22:15.088Z,26.34
2022-08-01T09:24:44.573Z,26.37
2022-08-01T09:27:25.061Z,26.94
2022-08-01T09:30:01.380Z,26.98
2022-08-01T09:32:35.901Z,27.14
2022-08-01T09:35:31.299Z,27.81
2022-08-01T09:38:18.761Z,28.30
2022-08-01T09:40:54.050Z,28.61
2022-08-01T09:43:25.224Z,28.83
2022-08-01T09:45:57.986Z,28.52
2022-08-01T09:48:29.471Z,28.81
2022-08-01T09:51:07.126Z,28.88
2022-08-01T09:53:52.143Z,29.41
2022-08-01T09:56:23.361Z,29.69
2022-08-01T09:58:59.923Z,29.74
2022-08-01T10:01:36.960Z,29.89
2022-08-01T10:04:15.223Z,29.94
2022-08-01T10:06:50.608Z,30.00
2022-08-01T10:09:40.646Z,29.67
2022-08-01T10:12:15.974Z,29.40
2022-08-01T10:14:50.340Z,28.88
2022-08-01T10:17:22.581Z,28.81
2022-08-01T10:19:55.699Z,28.76
2022-08-01T10:22:32.668Z,28.37
2022-08-01T10:25:08.602Z,28.24
2022-08-01T10:27:40.196Z,28.07
2022-08-01T10:30:19.496Z,27.81
2022-08-01T10:32:55.123Z,28.15
2022-08-01T10:35:46.858Z,28.80
2022-08-01T10:38:14.927Z,28.00
2022-08-01T10:40:45.277Z,26.02
2022-08-01T10:43:21.503Z,22.89
2022-08-01T10:45:52.941Z,21.43
2022-08-01T10:48:31.929Z,20.77
2022-08-01T10:51:17.777Z,20.42
2022-08-01T10:53:56.825Z,20.37
2022-08-01T10:56:27.607Z,20.18
2022-08-01T10:59:06.771Z,20.45
2022-08-01T11:01:45.142Z,20.12
2022-08-01T11:04:18.095Z,20.56
2022-08-01T11:07:06.900Z,20.38
2022-08-01T11:09:51.476Z,20.33
2022-08-01T11:12:24.690Z,20.10
2022-08-01T11:15:30.311Z,20.40
2022-08-01T11:18:04.464Z,20.73
2022-08-01T11:20:36.077Z,21.03
2022-08-01T11:23:36.105Z,21.35
2022-08-01T11:26:29.664Z,21.66
2022-08-01T11:29:20.913Z,22.07
2022-08-01T11:31:52.914Z,22.56
2022-08-01T11:34:22.440Z,23.25
2022-08-01T11:36:59.929Z,23.41
2022-08-01T11:39:29.503Z,23.34
2022-08-01T11:42:21.158Z,24.06
2022-08-01T11:44:53.786Z,24.36
2022-08-01T11:47:46.723Z,24.56
2022-08-01T11:50:36.321Z,24.96
2022-08-01T11:53:08.875Z,25.48
2022-08-01T11:55:51.257Z,25.41
2022-08-01T11:58:29.406Z,25.54
2022-08-01T12:01:01.170Z,25.77
2022-08-01T12:03:34.173Z,25.88
2022-08-01T12:06:04.381Z,25.86
2022-08-01T12:08:37.447Z,25.92
2022-08-01T12:11:07.530Z,26.32
2022-08-01T12:14:00.401Z,26.38
2022-08-01T12:16:41.134Z,26.18
2022-08-01T12:19:11.501Z,25.72
2022-08-01T12:21:41.301Z,25.63
2022-08-01T12:24:10.577Z,25.27
2022-08-01T12:26:43.663Z,24.85
2022-08-01T12:29:33.309Z,24.29
2022-08-01T12:32:02.876Z,24.11
2022-08-01T12:34:35.138Z,24.26
2022-08-01T12:37:05.487Z,24.67
2022-08-01T12:39:40.249Z,24.81
2022-08-01T12:42:11.701Z,25.39
2022-08-01T12:44:44.142Z,25.78
2022-08-01T12:47:15.477Z,26.20
2022-08-01T12:49:47.032Z,26.08
2022-08-01T12:52:18.428Z,26.37
2022-08-01T12:55:06.511Z,26.19
2022-08-01T12:57:42.135Z,25.99
2022-08-01T13:00:20.658Z,25.89
2022-08-01T13:02:52.636Z,25.28
2022-08-01T13:05:21.775Z,25.08
2022-08-01T13:07:53.026Z,25.21
2022-08-01T13:10:31.497Z,25.07
2022-08-01T13:13:01.600Z,25.25
2022-08-01T13:15:35.917Z,25.35
2022-08-01T13:18:28.403Z,25.73
2022-08-01T13:21:16.253Z,25.55
2022-08-01T13:24:04.859Z,25.52
2022-08-01T13:26:45.808Z,25.43
2022-08-01T13:29:16.975Z,25.11
2022-08-01T13:31:47.344Z,24.54
2022-08-01T13:34:18.093Z,24.66
2022-08-01T13:36:49.649Z,24.72
2022-08-01T13:39:36.395Z,24.77
2022-08-01T13:42:05.876Z,24.99
2022-08-01T13:44:34.945Z,25.10
2022-08-01T13:47:15.200Z,25.30
2022-08-01T13:49:45.742Z,25.52
2022-08-01T13:52:14.802Z,25.60
2022-08-01T13:54:43.504Z,25.89
2022-08-01T13:57:12.451Z,26.33
2022-08-01T13:59:41.100Z,26.31
2022-08-01T14:02:11.225Z,26.32
2022-08-01T14:04:39.871Z,26.25
2022-08-01T14:07:13.052Z,26.37
2022-08-01T14:09:44.781Z,26.18
2022-08-01T14:12:14.309Z,26.07
2022-08-01T14:14:42.792Z,26.28
2022-08-01T14:17:13.347Z,26.16
2022-08-01T14:19:46.502Z,26.38
2022-08-01T14:22:15.196Z,26.40
2022-08-01T14:24:43.754Z,26.34
2022-08-01T14:27:13.240Z,25.69
2022-08-01T14:30:00.231Z,26.01
2022-08-01T14:32:34.292Z,26.14
2022-08-01T14:35:03.517Z,26.05
2022-08-01T14:37:37.601Z,26.51
2022-08-01T14:40:10.413Z,26.73
2022-08-01T14:42:40.428Z,26.42
2022-08-01T14:45:10.921Z,26.10
2022-08-01T14:47:42.710Z,26.59
2022-08-01T14:50:15.366Z,26.47
2022-08-01T14:52:45.264Z,26.60
2022-08-01T14:55:15.118Z,26.68
2022-08-01T14:57:43.815Z,26.61
2022-08-01T15:00:14.952Z,26.49
2022-08-01T15:02:45.535Z,26.64
2022-08-01T15:05:14.469Z,26.34
2022-08-01T15:07:51.664Z,26.08
2022-08-01T15:10:22.637Z,25.86
2022-08-01T15:12:51.616Z,25.45
2022-08-01T15:15:21.026Z,25.25
2022-08-01T15:17:52.755Z,25.23
2022-08-01T15:20:21.829Z,25.28
2022-08-01T15:22:50.581Z,25.27
2022-08-01T15:25:19.231Z,25.41
2022-08-01T15:27:47.810Z,24.91
2022-08-01T15:30:16.709Z,24.87
2022-08-01T15:32:53.466Z,25.08
2022-08-01T15:35:22.123Z,24.93
2022-08-01T15:37:51.108Z,25.10
2022-08-01T15:40:22.411Z,25.26
2022-08-01T15:42:51.077Z,25.27
2022-08-01T15:48:12.131Z,25.24
2022-08-01T15:50:41.156Z,25.21
2022-08-01T15:53:10.207Z,25.13
2022-08-01T15:55:39.802Z,25.23
2022-08-01T15:58:11.610Z,25.26
2022-08-01T16:00:40.944Z,25.28
2022-08-01T16:03:11.896Z,25.21
2022-08-01T16:05:43.915Z,25.37
2022-08-01T16:08:13.750Z,25.38
2022-08-01T16:10:43.200Z,25.32
2022-08-01T16:13:12.959Z,25.50
2022-08-01T16:15:42.320Z,25.17
2022-08-01T16:18:14.717Z,25.21
2022-08-01T16:20:45.752Z,25.15
2022-08-01T16:23:15.608Z,25.19
2022-08-01T16:25:45.035Z,25.37
2022-08-01T16:28:14.585Z,25.64
2022-08-01T16:30:48.784Z,25.82
2022-08-01T16:33:47.096Z,25.64
2022-08-01T16:36:21.587Z,25.96
2022-08-01T16:38:51.947Z,25.64
2022-08-01T16:41:20.747Z,25.92
2022-08-01T16:43:53.360Z,26.11
2022-08-01T16:46:25.142Z,26.09
2022-08-01T16:48:56.180Z,26.03
2022-08-01T16:51:24.906Z,25.91
2022-08-01T16:53:53.829Z,25.73
2022-08-01T16:56:22.743Z,25.80
2022-08-01T16:58:51.413Z,25.58
2022-08-01T17:02:01.518Z,25.62
2022-08-01T17:04:10.735Z,25.35
2022-08-01T17:06:39.591Z,25.46
2022-08-01T17:09:09.461Z,25.67
2022-08-01T17:11:38.199Z,25.41
2022-08-01T17:14:07.282Z,25.32
2022-08-01T17:16:36.462Z,24.74
2022-08-01T17:19:05.743Z,24.92
2022-08-01T17:21:39.814Z,23.81
2022-08-01T17:24:14.833Z,24.67
2022-08-01T17:26:45.559Z,24.68
2022-08-01T17:29:14.632Z,24.63
2022-08-01T17:31:43.569Z,23.35
2022-08-01T17:34:12.533Z,24.47
2022-08-01T17:36:42.671Z,24.48
2022-08-01T17:39:13.590Z,24.44
2022-08-01T17:41:43.480Z,24.21
2022-08-01T17:44:12.500Z,24.26
2022-08-01T17:46:43.526Z,24.22
2022-08-01T17:49:15.328Z,24.10
2022-08-01T17:51:47.072Z,23.06
2022-08-01T17:54:23.719Z,23.81
2022-08-01T17:56:52.852Z,23.79
2022-08-01T17:59:22.546Z,23.79
2022-08-01T18:01:52.033Z,23.71
2022-08-01T18:04:21.206Z,23.66
2022-08-01T18:06:58.094Z,23.03
2022-08-01T18:09:32.892Z,23.69
2022-08-01T18:12:03.175Z,23.73
2022-08-01T18:14:41.038Z,23.60
2022-08-01T18:17:13.216Z,23.59
2022-08-01T18:19:46.855Z,23.52
2022-08-01T18:22:32.795Z,23.42
2022-08-01T18:25:08.389Z,23.32
2022-08-01T18:28:29.587Z,22.19
2022-08-01T18:30:27.312Z,23.03
2022-08-01T18:32:57.158Z,22.89
2022-08-01T18:35:51.693Z,22.68
2022-08-01T18:38:17.874Z,21.68
2022-08-01T18:40:49.218Z,22.42
2022-08-01T18:43:18.318Z,22.28
2022-08-01T18:45:47.426Z,22.16
2022-08-01T18:48:16.267Z,22.07
2022-08-01T18:50:45.362Z,21.97
2022-08-01T18:53:14.193Z,20.86
2022-08-01T18:55:44.745Z,21.70
2022-08-01T18:58:13.514Z,21.63
2022-08-01T19:00:42.359Z,21.56
2022-08-01T19:03:16.182Z,21.52
2022-08-01T19:05:45.297Z,21.45
2022-08-01T19:08:14.667Z,21.43
2022-08-01T19:10:44.793Z,21.35
2022-08-01T19:13:14.694Z,21.23
2022-08-01T19:15:44.040Z,21.17
2022-08-01T19:18:13.126Z,21.14
2022-08-01T19:20:43.058Z,21.02
2022-08-01T19:23:29.146Z,20.90
2022-08-01T19:26:00.184Z,20.81
2022-08-01T19:28:30.881Z,20.62
2022-08-01T19:31:03.539Z,20.58
2022-08-01T19:33:39.040Z,20.45
2022-08-01T19:36:10.479Z,20.20
2022-08-01T19:38:39.130Z,20.27
2022-08-01T19:41:09.351Z,19.84
2022-08-01T19:43:46.150Z,19.76
2022-08-01T19:46:17.486Z,19.39
2022-08-01T19:48:53.665Z,20.02
2022-08-01T19:51:33.661Z,19.98
2022-08-01T19:54:07.657Z,19.94
2022-08-01T19:56:46.538Z,19.93
2022-08-01T19:59:21.627Z,19.88
2022-08-01T20:01:54.498Z,19.77
2022-08-01T20:04:23.925Z,19.82
2022-08-01T20:06:53.143Z,19.05
2022-08-01T20:09:22.276Z,19.64
2022-08-01T20:11:55.271Z,19.91
2022-08-01T20:14:26.648Z,19.80
2022-08-01T20:16:58.038Z,18.80
2022-08-01T20:19:29.546Z,19.98
2022-08-01T20:22:04.728Z,19.98
2022-08-01T20:24:41.076Z,19.91
2022-08-01T20:27:13.857Z,19.81
2022-08-01T20:29:45.471Z,19.42
2022-08-01T20:32:16.472Z,19.58
2022-08-01T20:34:45.315Z,18.35
2022-08-01T20:37:14.549Z,19.47
2022-08-01T20:39:48.547Z,19.23
2022-08-01T20:42:24.897Z,18.33
2022-08-01T20:44:56.512Z,17.18
2022-08-01T20:47:26.656Z,19.12
2022-08-01T20:50:27.642Z,18.94
2022-08-01T20:53:05.485Z,18.88
2022-08-01T20:55:47.714Z,18.77
2022-08-01T20:58:29.179Z,19.01
2022-08-01T21:01:03.205Z,18.73
2022-08-01T21:03:52.409Z,18.31
2022-08-01T21:06:31.580Z,18.76
2022-08-01T21:09:05.033Z,18.70
2022-08-01T21:11:44.260Z,18.32
2022-08-01T21:14:22.369Z,18.57
2022-08-01T21:17:02.597Z,18.52
2022-08-01T21:19:35.031Z,18.49
2022-08-01T21:22:12.156Z,18.22
2022-08-01T21:24:58.193Z,18.15
2022-08-01T21:27:33.538Z,18.27
2022-08-01T21:30:08.458Z,18.03
2022-08-01T21:32:42.037Z,18.12
2022-08-01T21:35:18.678Z,18.08
2022-08-01T21:37:52.703Z,17.83
2022-08-01T21:40:23.050Z,17.80
2022-08-01T21:42:54.593Z,17.98
2022-08-01T21:45:27.352Z,17.51
2022-08-01T21:47:59.088Z,16.81
2022-08-01T21:50:28.094Z,17.84
2022-08-01T21:53:15.997Z,17.81
2022-08-01T21:56:14.636Z,17.63
2022-08-01T21:58:53.491Z,17.76
2022-08-01T22:01:33.436Z,17.73
2022-08-01T22:04:26.520Z,17.53
2022-08-01T22:06:58.082Z,17.67
2022-08-01T22:09:30.980Z,17.66
2022-08-01T22:12:08.092Z,17.41
2022-08-01T22:14:44.127Z,17.60
2022-08-01T22:17:21.760Z,17.57
2022-08-01T22:19:54.094Z,17.55
2022-08-01T22:22:45.228Z,17.53
2022-08-01T22:25:16.976Z,17.49
2022-08-01T22:28:07.845Z,17.48
2022-08-01T22:30:36.675Z,17.45
2022-08-01T22:33:16.232Z,17.43
2022-08-01T22:35:48.028Z,16.84
2022-08-01T22:38:20.105Z,17.34
2022-08-01T22:40:52.878Z,17.56
2022-08-01T22:43:30.400Z,17.91
2022-08-01T22:46:17.325Z,17.88
2022-08-01T22:48:53.330Z,17.20
2022-08-01T22:51:38.125Z,17.92
2022-08-01T22:54:10.073Z,18.13
2022-08-01T22:56:44.264Z,18.34
2022-08-01T22:59:20.878Z,18.06
2022-08-01T23:01:52.642Z,18.33
2022-08-01T23:04:33.889Z,18.42
2022-08-01T23:07:07.617Z,18.43
2022-08-01T23:09:53.031Z,18.36
2022-08-01T23:12:28.620Z,18.25
2022-08-01T23:15:01.174Z,18.25
2022-08-01T23:17:32.813Z,18.26
2022-08-01T23:20:08.034Z,18.43
2022-08-01T23:22:38.608Z,18.43
2022-08-01T23:25:10.206Z,18.41
2022-08-01T23:27:54.113Z,17.39
2022-08-01T23:30:33.483Z,18.37
2022-08-01T23:33:03.105Z,18.33
2022-08-01T23:35:35.504Z,18.25
2022-08-01T23:38:10.291Z,18.16
2022-08-01T23:40:39.894Z,18.08
2022-08-01T23:43:16.139Z,17.99
2022-08-01T23:46:04.142Z,17.88
2022-08-01T23:48:36.791Z,17.77
2022-08-01T23:51:09.459Z,17.69
2022-08-01T23:53:40.119Z,17.29
2022-08-01T23:56:08.736Z,17.51
2022-08-01T23:58:37.678Z,17.40
